Portada
METAR-TAF:

METAR-TAF

Aeroports :

Aeroport Internacional de Narita

Tòquio Narita, Japó

latitud: 35-46N, longitud: 140-23E, altitud: 41 m

Observació

L'informe es va fer fa 35 minuts, a les 04:00 UTC
Vent 9 kt del Sud/Sud-Est
Temperatura 17°C
Humitat 48%
Pressió 1023 hPa
Visibilitat 10 km o més
Escasses núvols a una alçada de 3000 ft
Cel ennuvolat a una alçada de 5000 ft

METAR: RJAA 010400Z 16009KT 9999 FEW030 BKN050 17/06 Q1023 NOSIG RMK 1CU030 7SC050 A3022

Hora: 13:35 (04:35 UTC)

Pronòstic

L'informe es va fer fa 2 hores i 3 minuts, a les 02:32 UTC
Pronòstic vàlid del 01 a les 02 UTC al 02 a les 06 UTC
Vent 6 kt del Sud/Sud-Est
Visibilitat 10 km o més
Escasses núvols a una alçada de 2000 ft
Núvols disperses a una alçada de 4000 ft
Evolucionant progressivament
l' 01 a les 21 UTC al 02 a les 00 UTC
Vent 20 kt del Sud amb ràfegues de 33 kt

TAF: RJAA 010232Z 0102/0206 16006KT 9999 FEW020 SCT040 BECMG 0121/0200 19020G33KT

Observacions i pronòstics meteorològics de més de 4000 aeroports (METAR i TAF).

Les estacions disponibles són els punts grocs i vermells al mapa.

Posi el ratolí al punt desitjat per veure el nom de l'estació.

Feu clic per veure les observacions i els pronòstics meteorològics.

Per canviar el mapa: feu clic els botons verds amb una creu de color negre per apropar; al botó verd amb un guió per allunyar la imatge; o en les fletxes verdes per a mapes adjacents.


METAR-TAF: